Time;durP1;ratioP1;P1;durP2;ratioP2;P2;SDS_P1;SDS_P2;PMS_P1;PMS_P2;Temp;Humidity;BMP_temperature;BMP_pressure;BME280_temperature;BME280_humidity;BME280_pressure;Samples;Min_cycle;Max_cycle;Signal;HPM_P1;HPM_P2
2023/12/07 00:02:18;;;;;;;0.50;0.50;;;0.80;99.90;;;;;;4965237;28;20054;-81
2023/12/07 00:04:44;;;;;;;1.85;1.35;;;0.70;99.90;;;;;;4965890;28;20046;-79
2023/12/07 00:07:11;;;;;;;0.45;0.45;;;0.70;99.90;;;;;;4967538;28;20035;-82
2023/12/07 00:09:37;;;;;;;4.05;2.05;;;0.70;99.90;;;;;;4969015;28;20042;-81
2023/12/07 00:12:03;;;;;;;1.10;1.02;;;0.60;99.90;;;;;;4968637;28;20424;-81
2023/12/07 00:14:29;;;;;;;6.70;1.42;;;0.60;99.90;;;;;;4966355;28;20050;-81
2023/12/07 00:16:56;;;;;;;0.98;0.98;;;0.50;99.90;;;;;;4970325;28;20053;-82
2023/12/07 00:19:23;;;;;;;1.20;1.10;;;0.50;99.90;;;;;;4968626;28;20046;-81
2023/12/07 00:21:49;;;;;;;0.30;0.30;;;0.50;99.90;;;;;;4964367;28;20030;-82
2023/12/07 00:24:15;;;;;;;4.13;1.60;;;0.40;99.90;;;;;;4945414;28;20058;-80
2023/12/07 00:26:41;;;;;;;1.38;1.27;;;0.40;99.90;;;;;;4947970;28;20516;-82
2023/12/07 00:29:08;;;;;;;1.38;1.25;;;0.30;99.90;;;;;;4967481;28;20473;-82
2023/12/07 00:31:34;;;;;;;2.72;2.33;;;0.20;99.90;;;;;;4965209;28;20346;-82
2023/12/07 00:34:00;;;;;;;2.05;0.93;;;0.10;99.90;;;;;;4963930;28;20477;-82
2023/12/07 00:36:26;;;;;;;0.25;0.25;;;0.00;99.90;;;;;;4945172;28;20039;-81
2023/12/07 00:38:52;;;;;;;1.08;1.08;;;0.00;99.90;;;;;;4967670;28;20046;-82
2023/12/07 00:41:18;;;;;;;2.17;1.17;;;-0.10;99.90;;;;;;4956834;28;20035;-82
2023/12/07 00:43:45;;;;;;;1.00;0.73;;;-0.20;99.90;;;;;;4967326;28;20046;-82
2023/12/07 00:46:11;;;;;;;4.40;2.03;;;-0.30;99.90;;;;;;4963815;28;20154;-82
2023/12/07 00:48:37;;;;;;;0.95;0.77;;;-0.30;99.90;;;;;;4945885;29;20047;-83
2023/12/07 00:51:03;;;;;;;0.77;0.77;;;-0.40;99.90;;;;;;4966281;28;20448;-82
2023/12/07 00:53:29;;;;;;;2.80;2.60;;;-0.50;99.90;;;;;;4971172;28;20039;-83
2023/12/07 00:55:55;;;;;;;0.75;0.75;;;-0.50;99.90;;;;;;4955176;28;20043;-82
2023/12/07 00:58:22;;;;;;;1.20;1.15;;;-0.50;99.90;;;;;;4970781;28;20436;-82
2023/12/07 01:00:49;;;;;;;7.68;1.55;;;-0.50;99.90;;;;;;4948719;28;20792;-82
2023/12/07 01:03:15;;;;;;;1.27;1.23;;;-0.50;99.90;;;;;;4970240;28;20061;-83
2023/12/07 01:05:41;;;;;;;0.38;0.38;;;-0.40;99.90;;;;;;4966498;28;20336;-86
2023/12/07 01:08:07;;;;;;;2.05;1.88;;;-0.40;99.90;;;;;;4965434;28;20050;-82
2023/12/07 01:10:33;;;;;;;0.70;0.68;;;-0.40;99.90;;;;;;4969956;28;20053;-82
2023/12/07 01:12:59;;;;;;;0.20;0.20;;;-0.40;99.90;;;;;;4974036;28;20034;-82
2023/12/07 01:15:26;;;;;;;0.52;0.52;;;-0.50;99.90;;;;;;4968571;28;20047;-82
2023/12/07 01:17:52;;;;;;;0.68;0.68;;;-0.50;99.90;;;;;;4944260;28;20039;-82
2023/12/07 01:20:18;;;;;;;2.42;2.08;;;-0.50;99.90;;;;;;4969345;28;20042;-81
2023/12/07 01:22:45;;;;;;;1.45;1.35;;;-0.60;99.90;;;;;;4973122;28;20378;-82
2023/12/07 01:25:11;;;;;;;0.52;0.50;;;-0.60;99.90;;;;;;4969772;28;20045;-83
2023/12/07 01:27:38;;;;;;;0.50;0.50;;;-0.60;99.90;;;;;;4969846;28;20042;-82
2023/12/07 01:30:04;;;;;;;9.10;2.60;;;-0.60;99.90;;;;;;4967356;28;20046;-82
2023/12/07 01:32:31;;;;;;;1.08;1.08;;;-0.60;99.90;;;;;;4970597;28;20023;-84
2023/12/07 01:34:57;;;;;;;1.77;1.67;;;-0.60;99.90;;;;;;4970738;28;20101;-82
2023/12/07 01:37:23;;;;;;;0.30;0.30;;;-0.60;99.90;;;;;;4951923;28;20054;-82
2023/12/07 01:39:49;;;;;;;0.50;0.50;;;-0.50;99.90;;;;;;4960743;28;20031;-82
2023/12/07 01:42:16;;;;;;;7.47;2.35;;;-0.60;99.90;;;;;;4967842;28;20031;-82
2023/12/07 01:44:42;;;;;;;0.77;0.77;;;-0.60;99.90;;;;;;4971453;28;20035;-82
2023/12/07 01:47:10;;;;;;;1.40;0.90;;;-0.60;99.90;;;;;;4948925;28;20054;-82
2023/12/07 01:49:36;;;;;;;1.25;1.23;;;-0.60;99.90;;;;;;4968474;28;20046;-82
2023/12/07 01:52:03;;;;;;;1.50;1.40;;;-0.60;99.90;;;;;;4975361;28;20030;-81
2023/12/07 01:54:30;;;;;;;1.13;0.98;;;-0.60;99.90;;;;;;4975658;28;20388;-81
2023/12/07 01:56:56;;;;;;;1.70;0.95;;;-0.60;99.90;;;;;;4973299;28;20491;-82
2023/12/07 01:59:24;;;;;;;1.33;1.08;;;-0.70;99.90;;;;;;4966833;28;20461;-81
2023/12/07 02:01:51;;;;;;;0.57;0.57;;;-0.70;99.90;;;;;;4969821;28;20388;-82
2023/12/07 02:04:17;;;;;;;1.52;1.42;;;-0.80;99.90;;;;;;4951443;29;20039;-80
2023/12/07 02:06:43;;;;;;;2.83;1.60;;;-0.80;99.90;;;;;;4962153;28;20046;-82
2023/12/07 02:09:09;;;;;;;1.85;0.70;;;-0.80;99.90;;;;;;4968739;28;20034;-81
2023/12/07 02:11:36;;;;;;;0.52;0.52;;;-0.90;99.90;;;;;;4987330;28;20043;-88
2023/12/07 02:14:02;;;;;;;2.60;2.40;;;-0.90;99.90;;;;;;4976299;28;20038;-83
2023/12/07 02:16:42;;;;;;;1.98;1.80;;;-0.80;99.90;;;;;;4950161;28;20035;-82
2023/12/07 02:19:26;;;;;;;0.63;0.63;;;-0.80;99.90;;;;;;4954158;28;20480;-82
2023/12/07 02:22:12;;;;;;;1.23;1.13;;;-0.80;99.90;;;;;;4969596;28;20027;-82
2023/12/07 02:24:45;;;;;;;0.85;0.85;;;-0.90;99.90;;;;;;4945726;28;20062;-83
2023/12/07 02:27:11;;;;;;;3.40;2.17;;;-1.00;99.90;;;;;;4961540;28;20047;-84
2023/12/07 02:29:37;;;;;;;0.93;0.93;;;-1.00;99.90;;;;;;4951414;28;20039;-86
2023/12/07 02:32:04;;;;;;;2.55;2.35;;;-1.00;99.90;;;;;;4969427;28;20057;-83
2023/12/07 02:34:30;;;;;;;2.00;1.23;;;-1.10;99.90;;;;;;4964756;28;20549;-83
2023/12/07 02:36:58;;;;;;;1.63;1.20;;;-1.20;99.90;;;;;;4965557;28;20039;-83
2023/12/07 02:39:25;;;;;;;1.27;1.23;;;-1.20;99.90;;;;;;4964646;28;20041;-82
2023/12/07 02:41:53;;;;;;;1.27;1.02;;;-1.20;99.90;;;;;;4943557;28;20039;-83
2023/12/07 02:44:19;;;;;;;2.33;2.15;;;-1.20;99.90;;;;;;4960441;28;20491;-83
2023/12/07 02:46:45;;;;;;;1.00;0.73;;;-1.30;99.90;;;;;;4963332;28;20496;-83
2023/12/07 02:49:12;;;;;;;2.58;2.00;;;-1.30;99.90;;;;;;4948777;28;20489;-82
2023/12/07 02:51:38;;;;;;;0.75;0.75;;;-1.20;99.90;;;;;;4964284;28;20031;-83
2023/12/07 02:54:04;;;;;;;1.35;1.08;;;-1.20;99.90;;;;;;4962785;28;20039;-83
2023/12/07 02:56:30;;;;;;;1.75;1.48;;;-1.30;99.90;;;;;;4963445;28;20042;-83
2023/12/07 02:58:56;;;;;;;1.42;1.33;;;-1.30;99.90;;;;;;4968311;28;20039;-82
2023/12/07 03:01:22;;;;;;;2.17;1.08;;;-1.40;99.90;;;;;;4965490;28;20153;-82
2023/12/07 03:03:48;;;;;;;1.15;1.10;;;-1.40;99.90;;;;;;4952824;28;20035;-83
2023/12/07 03:06:16;;;;;;;1.20;0.90;;;-1.40;99.90;;;;;;4962967;28;20038;-82
2023/12/07 03:08:42;;;;;;;2.70;2.45;;;-1.40;99.90;;;;;;4963649;28;20045;-83
2023/12/07 03:11:08;;;;;;;0.88;0.88;;;-1.40;99.90;;;;;;4966386;28;20035;-82
2023/12/07 03:13:34;;;;;;;3.05;1.92;;;-1.40;99.90;;;;;;4964591;28;20034;-86
2023/12/07 03:16:00;;;;;;;0.00;0.00;;;-1.50;99.90;;;;;;4947090;28;20051;-82
2023/12/07 03:18:27;;;;;;;2.17;1.13;;;-1.50;99.90;;;;;;4960409;28;20043;-83
2023/12/07 03:20:53;;;;;;;3.15;2.90;;;-1.50;99.90;;;;;;4951197;28;20046;-82
2023/12/07 03:23:19;;;;;;;1.98;1.85;;;-1.50;99.90;;;;;;4966174;28;20507;-82
2023/12/07 03:25:45;;;;;;;0.77;0.77;;;-1.50;99.90;;;;;;4960140;28;20061;-84
2023/12/07 03:28:12;;;;;;;1.75;1.65;;;-1.50;99.90;;;;;;4947773;28;20054;-82
2023/12/07 03:30:38;;;;;;;1.65;1.10;;;-1.50;99.90;;;;;;4965702;28;20038;-82
2023/12/07 03:33:04;;;;;;;0.63;0.63;;;-1.60;99.90;;;;;;4968749;28;20055;-82
2023/12/07 03:35:30;;;;;;;1.25;0.93;;;-1.60;99.90;;;;;;4964925;28;20038;-84
2023/12/07 03:37:56;;;;;;;0.10;0.10;;;-1.60;99.90;;;;;;4962657;28;20034;-82
2023/12/07 03:40:23;;;;;;;3.05;2.30;;;-1.60;99.90;;;;;;4962844;28;20491;-82
2023/12/07 03:42:49;;;;;;;2.63;1.98;;;-1.70;99.90;;;;;;4959418;28;20045;-82
2023/12/07 03:45:15;;;;;;;1.38;1.27;;;-1.60;99.90;;;;;;4950894;28;20050;-82
2023/12/07 03:47:41;;;;;;;1.08;0.98;;;-1.60;99.90;;;;;;4964356;28;20035;-83
2023/12/07 03:50:08;;;;;;;1.15;1.15;;;-1.70;99.90;;;;;;4971369;28;20050;-82
2023/12/07 03:52:34;;;;;;;2.15;1.98;;;-1.70;99.90;;;;;;4964931;28;20459;-81
2023/12/07 03:55:00;;;;;;;2.70;1.60;;;-1.80;99.90;;;;;;4967988;28;20043;-82
2023/12/07 03:57:26;;;;;;;1.48;1.38;;;-1.80;99.90;;;;;;4946427;28;20035;-81
2023/12/07 03:59:53;;;;;;;1.38;1.27;;;-1.80;99.90;;;;;;4962682;28;20035;-81
2023/12/07 04:02:19;;;;;;;0.95;0.95;;;-1.80;99.90;;;;;;4972786;28;20026;-81
2023/12/07 04:04:45;;;;;;;1.58;1.48;;;-1.80;99.90;;;;;;4955711;28;20047;-82
2023/12/07 04:07:12;;;;;;;3.50;1.95;;;-1.70;99.90;;;;;;4972484;28;20035;-82
2023/12/07 04:09:38;;;;;;;2.47;2.30;;;-1.70;99.90;;;;;;4973010;28;20042;-82
2023/12/07 04:12:04;;;;;;;0.98;0.82;;;-1.70;99.90;;;;;;4973330;28;20103;-81
2023/12/07 04:14:30;;;;;;;3.05;1.95;;;-1.70;99.90;;;;;;4970739;28;20043;-81
2023/12/07 04:16:56;;;;;;;0.68;0.57;;;-1.70;99.90;;;;;;4966735;28;20189;-81
2023/12/07 04:19:23;;;;;;;5.78;1.70;;;-1.70;99.90;;;;;;4959497;28;20393;-81
2023/12/07 04:21:49;;;;;;;2.65;1.67;;;-1.70;99.90;;;;;;4958700;28;20100;-81
2023/12/07 04:24:15;;;;;;;1.70;1.02;;;-1.70;99.90;;;;;;4964666;28;20041;-81
2023/12/07 04:26:41;;;;;;;3.42;2.85;;;-1.70;99.90;;;;;;4965187;28;20046;-81
2023/12/07 04:29:07;;;;;;;3.53;3.30;;;-1.80;99.90;;;;;;4962510;28;20031;-81
2023/12/07 04:31:35;;;;;;;5.00;1.02;;;-1.80;99.90;;;;;;4959690;28;20042;-81
2023/12/07 04:34:01;;;;;;;9.75;3.67;;;-1.80;99.90;;;;;;4963852;28;20043;-81
2023/12/07 04:36:27;;;;;;;2.97;1.98;;;-1.70;99.90;;;;;;4964911;28;20058;-81
2023/12/07 04:38:54;;;;;;;5.70;1.27;;;-1.70;99.90;;;;;;4965339;28;20039;-82
2023/12/07 04:41:20;;;;;;;0.80;0.80;;;-1.80;99.90;;;;;;4965254;28;20111;-81
2023/12/07 04:43:46;;;;;;;0.60;0.60;;;-1.80;99.90;;;;;;4955583;28;20043;-82
2023/12/07 04:46:12;;;;;;;3.65;1.85;;;-1.80;99.90;;;;;;4940718;29;20075;-81
2023/12/07 04:48:40;;;;;;;1.10;0.68;;;-1.70;99.90;;;;;;4949173;29;20035;-83
2023/12/07 04:51:06;;;;;;;1.45;1.38;;;-1.70;99.90;;;;;;4946786;29;20039;-81
2023/12/07 04:53:33;;;;;;;0.63;0.63;;;-1.70;99.90;;;;;;4969821;28;20044;-81
2023/12/07 04:55:59;;;;;;;2.33;1.48;;;-1.60;99.90;;;;;;4946779;29;20036;-82
2023/12/07 04:58:25;;;;;;;1.15;1.15;;;-1.60;99.90;;;;;;4956414;28;20059;-82
2023/12/07 05:00:51;;;;;;;1.10;0.68;;;-1.60;99.90;;;;;;4949639;28;20023;-82
2023/12/07 05:03:17;;;;;;;0.63;0.63;;;-1.70;99.90;;;;;;4950402;28;20035;-81
2023/12/07 05:05:43;;;;;;;1.52;1.42;;;-1.70;99.90;;;;;;4950923;29;20030;-81
2023/12/07 05:08:09;;;;;;;0.30;0.30;;;-1.70;99.90;;;;;;4946917;28;20378;-80
2023/12/07 05:10:36;;;;;;;1.42;1.33;;;-1.70;99.90;;;;;;4950357;28;20039;-81
2023/12/07 05:13:02;;;;;;;10.65;2.92;;;-1.70;99.90;;;;;;4949169;29;20515;-76
2023/12/07 05:15:28;;;;;;;0.95;0.95;;;-1.80;99.90;;;;;;4961721;28;20043;-76
2023/12/07 05:17:54;;;;;;;1.15;0.80;;;-1.80;99.90;;;;;;4935177;29;20047;-76
2023/12/07 05:20:22;;;;;;;2.60;2.08;;;-1.90;99.90;;;;;;4954599;28;20031;-75
2023/12/07 05:22:48;;;;;;;0.63;0.52;;;-1.90;99.90;;;;;;4947120;28;20042;-76
2023/12/07 05:25:14;;;;;;;1.13;1.02;;;-2.00;99.90;;;;;;4942741;29;20476;-75
2023/12/07 05:27:41;;;;;;;0.90;0.85;;;-2.00;99.90;;;;;;4947591;28;20043;-76
2023/12/07 05:30:07;;;;;;;1.17;1.00;;;-2.10;99.90;;;;;;4947801;29;20027;-76
2023/12/07 05:32:34;;;;;;;1.77;1.65;;;-2.00;99.90;;;;;;4948959;29;20031;-76
2023/12/07 05:35:00;;;;;;;0.98;0.98;;;-2.00;99.90;;;;;;4941383;29;20031;-77
2023/12/07 05:37:26;;;;;;;2.97;2.47;;;-2.00;99.90;;;;;;4943434;29;20043;-76
2023/12/07 05:39:52;;;;;;;2.08;1.98;;;-2.00;99.90;;;;;;4949929;29;20039;-76
2023/12/07 05:42:18;;;;;;;2.35;1.88;;;-2.00;99.90;;;;;;4948474;28;20047;-76
2023/12/07 05:44:45;;;;;;;1.50;1.42;;;-2.00;99.90;;;;;;4946413;29;20051;-77
2023/12/07 05:47:11;;;;;;;0.52;0.52;;;-2.10;99.90;;;;;;4936266;29;20043;-77
2023/12/07 05:49:37;;;;;;;2.92;2.70;;;-2.20;99.90;;;;;;4946339;29;20031;-76
2023/12/07 05:52:03;;;;;;;0.40;0.40;;;-2.20;99.90;;;;;;4948327;29;20369;-76
2023/12/07 05:54:29;;;;;;;3.03;1.75;;;-2.20;99.90;;;;;;4946485;29;20031;-76
2023/12/07 05:56:56;;;;;;;0.10;0.10;;;-2.10;99.90;;;;;;4957007;28;20043;-76
2023/12/07 05:59:22;;;;;;;0.77;0.75;;;-2.20;99.90;;;;;;4944332;29;20035;-77
2023/12/07 06:01:51;;;;;;;3.30;2.05;;;-2.30;99.90;;;;;;4947277;29;20047;-76
2023/12/07 06:04:17;;;;;;;3.97;1.88;;;-2.30;99.90;;;;;;4961333;28;20408;-77
2023/12/07 06:06:43;;;;;;;0.63;0.63;;;-2.30;99.90;;;;;;4944800;29;20408;-77
2023/12/07 06:09:10;;;;;;;1.30;1.30;;;-2.30;99.90;;;;;;4941343;29;20042;-76
2023/12/07 06:11:36;;;;;;;2.03;1.80;;;-2.30;99.90;;;;;;4945409;29;20035;-76
2023/12/07 06:14:02;;;;;;;0.68;0.68;;;-2.30;99.90;;;;;;4958606;28;20055;-76
2023/12/07 06:16:29;;;;;;;2.42;1.75;;;-2.40;99.90;;;;;;4951060;29;20044;-76
2023/12/07 06:18:55;;;;;;;1.27;1.17;;;-2.40;99.90;;;;;;4946361;28;20036;-76
2023/12/07 06:21:21;;;;;;;2.13;1.92;;;-2.40;99.90;;;;;;4945075;29;20058;-76
2023/12/07 06:23:47;;;;;;;2.10;2.00;;;-2.40;99.90;;;;;;4945481;29;20031;-76
2023/12/07 06:26:13;;;;;;;8.18;4.05;;;-2.50;99.90;;;;;;4947940;29;20051;-76
2023/12/07 06:28:40;;;;;;;1.10;0.95;;;-2.50;99.90;;;;;;4941769;29;20039;-76
2023/12/07 06:31:07;;;;;;;1.30;1.20;;;-2.60;99.90;;;;;;4960183;28;20035;-75
2023/12/07 06:33:34;;;;;;;0.95;0.95;;;-2.60;99.90;;;;;;4947845;29;20031;-76
2023/12/07 06:36:03;;;;;;;3.90;3.08;;;-2.60;99.90;;;;;;4946784;29;20469;-76
2023/12/07 06:38:29;;;;;;;1.35;1.17;;;-2.70;99.90;;;;;;4943588;29;21900;-75
2023/12/07 06:40:56;;;;;;;0.95;0.95;;;-2.70;99.90;;;;;;4945159;29;20042;-76
2023/12/07 06:43:22;;;;;;;0.30;0.30;;;-2.70;99.90;;;;;;4944315;29;20031;-77
2023/12/07 06:45:48;;;;;;;0.90;0.90;;;-2.70;99.90;;;;;;4953600;28;20073;-76
2023/12/07 06:48:15;;;;;;;0.70;0.70;;;-2.70;99.90;;;;;;4966400;28;20473;-76
2023/12/07 06:50:41;;;;;;;1.27;1.15;;;-2.60;99.90;;;;;;4960987;28;20031;-76
2023/12/07 06:53:07;;;;;;;0.08;0.08;;;-2.60;99.90;;;;;;4960997;28;20035;-76
2023/12/07 06:55:33;;;;;;;5.68;5.28;;;-2.60;99.90;;;;;;4967100;28;20026;-75
2023/12/07 06:58:00;;;;;;;3.03;2.83;;;-2.60;99.90;;;;;;4961427;28;20053;-76
2023/12/07 07:00:26;;;;;;;1.40;1.30;;;-2.60;99.90;;;;;;4963626;28;20107;-76
2023/12/07 07:02:52;;;;;;;2.00;1.90;;;-2.70;99.90;;;;;;4942270;28;20055;-78
2023/12/07 07:05:19;;;;;;;1.00;0.88;;;-2.70;99.90;;;;;;4948370;28;20043;-76
2023/12/07 07:07:46;;;;;;;2.13;1.45;;;-2.70;99.90;;;;;;4963873;28;20481;-77
2023/12/07 07:10:12;;;;;;;2.72;2.47;;;-2.70;99.90;;;;;;4965590;28;20042;-76
2023/12/07 07:12:38;;;;;;;4.20;3.88;;;-2.70;99.90;;;;;;4960018;28;20473;-76
2023/12/07 07:15:07;;;;;;;0.73;0.73;;;-2.70;99.90;;;;;;4960219;28;20290;-76
2023/12/07 07:17:33;;;;;;;2.17;1.98;;;-2.80;99.90;;;;;;4964914;28;20046;-77
2023/12/07 07:19:59;;;;;;;1.77;1.67;;;-2.70;99.90;;;;;;4964049;28;20040;-76
2023/12/07 07:22:25;;;;;;;1.60;1.15;;;-2.80;99.90;;;;;;4943998;28;20028;-76
2023/12/07 07:24:52;;;;;;;2.75;2.50;;;-2.70;99.90;;;;;;4958984;28;20043;-76
2023/12/07 07:27:18;;;;;;;0.88;0.88;;;-2.80;99.90;;;;;;4964531;28;20468;-76
2023/12/07 07:29:46;;;;;;;1.17;1.17;;;-2.80;99.90;;;;;;4963206;28;20396;-76
2023/12/07 07:32:12;;;;;;;1.40;1.33;;;-2.70;99.90;;;;;;4963558;28;20031;-76
2023/12/07 07:34:39;;;;;;;1.15;1.00;;;-2.70;99.90;;;;;;4958124;28;20372;-76
2023/12/07 07:37:06;;;;;;;1.90;1.75;;;-2.70;99.90;;;;;;4965562;28;20043;-76
2023/12/07 07:39:33;;;;;;;1.45;1.13;;;-2.60;99.90;;;;;;4961722;28;20047;-76
2023/12/07 07:41:59;;;;;;;0.75;0.75;;;-2.70;99.90;;;;;;4973263;28;20041;-76
2023/12/07 07:44:26;;;;;;;4.25;3.63;;;-2.60;99.90;;;;;;4960646;28;20046;-76
2023/12/07 07:46:52;;;;;;;4.53;3.00;;;-2.50;99.90;;;;;;4959293;28;20066;-76
2023/12/07 07:49:18;;;;;;;2.53;1.35;;;-2.50;99.90;;;;;;4963760;28;20035;-76
2023/12/07 07:51:44;;;;;;;2.53;1.92;;;-2.40;99.90;;;;;;4964751;28;20039;-76
2023/12/07 07:54:10;;;;;;;0.73;0.73;;;-2.30;99.90;;;;;;4960817;28;20030;-77
2023/12/07 07:56:36;;;;;;;1.95;1.17;;;-2.30;99.90;;;;;;4956748;28;20491;-78
2023/12/07 07:59:03;;;;;;;4.22;1.85;;;-2.20;99.90;;;;;;4956646;28;20046;-77
2023/12/07 08:01:30;;;;;;;5.90;1.88;;;-2.20;99.90;;;;;;4965469;28;20453;-77
2023/12/07 08:03:56;;;;;;;3.15;2.60;;;-2.10;99.90;;;;;;4963254;28;20035;-77
2023/12/07 08:06:22;;;;;;;2.15;2.05;;;-2.10;99.90;;;;;;4962296;28;20047;-77
2023/12/07 08:08:49;;;;;;;0.98;0.98;;;-2.00;99.90;;;;;;4959765;28;20038;-77
2023/12/07 08:11:15;;;;;;;1.15;1.05;;;-1.80;99.90;;;;;;4969339;28;20042;-77
2023/12/07 08:13:42;;;;;;;1.42;1.33;;;-1.70;99.90;;;;;;4968302;28;20037;-77
2023/12/07 08:16:09;;;;;;;0.38;0.38;;;-1.60;99.90;;;;;;4961634;28;20263;-77
2023/12/07 08:18:36;;;;;;;1.67;1.58;;;-1.60;99.90;;;;;;4969410;28;20049;-77
2023/12/07 08:21:02;;;;;;;10.02;3.42;;;-1.60;99.90;;;;;;4961424;28;20046;-76
2023/12/07 08:23:28;;;;;;;2.03;1.92;;;-1.50;99.90;;;;;;4956261;28;20473;-76
2023/12/07 08:25:57;;;;;;;1.52;0.73;;;-1.40;99.90;;;;;;4966928;28;20051;-76
2023/12/07 08:28:23;;;;;;;3.13;2.55;;;-1.20;99.90;;;;;;4965479;28;20035;-76
2023/12/07 08:30:49;;;;;;;1.58;1.48;;;-1.00;99.90;;;;;;4956310;28;20046;-77
2023/12/07 08:33:15;;;;;;;2.58;1.60;;;-0.80;99.90;;;;;;4967572;28;20369;-76
2023/12/07 08:35:41;;;;;;;6.90;2.85;;;-0.70;99.90;;;;;;4965785;28;20031;-76
2023/12/07 08:38:07;;;;;;;1.20;1.20;;;-0.50;99.90;;;;;;4960762;28;20058;-75
2023/12/07 08:40:33;;;;;;;7.70;3.10;;;-0.30;99.90;;;;;;4965878;28;20035;-76
2023/12/07 08:43:00;;;;;;;7.32;4.75;;;-0.20;99.90;;;;;;4966489;28;20047;-76
2023/12/07 08:45:26;;;;;;;7.03;3.50;;;0.00;99.90;;;;;;4966079;28;20058;-76
2023/12/07 08:47:52;;;;;;;2.80;2.35;;;0.10;99.90;;;;;;4964342;28;20042;-77
2023/12/07 08:50:18;;;;;;;6.47;3.58;;;0.30;99.90;;;;;;4962254;28;20035;-76
2023/12/07 08:52:45;;;;;;;11.48;4.60;;;0.30;99.90;;;;;;4963866;28;20123;-77
2023/12/07 08:55:11;;;;;;;4.72;2.80;;;0.40;99.90;;;;;;4956886;28;20039;-77
2023/12/07 08:57:37;;;;;;;2.95;2.67;;;0.40;99.90;;;;;;4959648;28;20031;-77
2023/12/07 09:00:04;;;;;;;5.70;4.82;;;0.60;99.90;;;;;;4952612;28;20400;-77
2023/12/07 09:02:30;;;;;;;4.15;3.22;;;0.60;99.90;;;;;;4954824;28;20050;-77
2023/12/07 09:04:56;;;;;;;3.50;2.17;;;0.70;99.90;;;;;;4960062;28;20039;-76
2023/12/07 09:07:22;;;;;;;4.07;3.45;;;0.70;99.90;;;;;;4962617;28;20042;-77
2023/12/07 09:09:48;;;;;;;2.30;2.10;;;0.80;99.90;;;;;;4965179;28;20027;-77
2023/12/07 09:12:15;;;;;;;5.25;3.22;;;0.80;99.90;;;;;;4964243;28;20041;-76
2023/12/07 09:14:42;;;;;;;4.65;3.30;;;0.90;99.90;;;;;;4966528;28;20031;-77
2023/12/07 09:17:08;;;;;;;6.95;3.78;;;1.10;99.90;;;;;;4966810;28;20042;-76
2023/12/07 09:19:34;;;;;;;3.97;3.28;;;1.10;99.90;;;;;;4961496;28;20050;-75
2023/12/07 09:22:00;;;;;;;4.68;4.20;;;1.00;99.90;;;;;;4959920;28;20046;-76
2023/12/07 09:24:26;;;;;;;3.30;3.10;;;1.10;99.90;;;;;;4966862;28;20031;-80
2023/12/07 09:26:53;;;;;;;4.35;2.28;;;1.10;99.90;;;;;;4966919;28;20031;-78
2023/12/07 09:29:19;;;;;;;5.97;2.92;;;1.10;99.90;;;;;;4965489;28;20039;-80
2023/12/07 09:31:45;;;;;;;5.07;3.78;;;1.20;99.90;;;;;;4963377;28;20040;-75
2023/12/07 09:34:17;;;;;;;3.35;2.85;;;1.20;99.90;;;;;;4963828;28;20031;-76
2023/12/07 09:36:45;;;;;;;3.53;3.03;;;1.20;99.90;;;;;;4963636;28;20399;-77
2023/12/07 09:39:11;;;;;;;4.20;3.80;;;1.20;99.90;;;;;;4947849;28;20308;-77
2023/12/07 09:41:39;;;;;;;9.15;3.28;;;1.20;99.90;;;;;;4970308;28;20038;-77
2023/12/07 09:44:05;;;;;;;8.95;4.57;;;1.20;99.90;;;;;;4968629;28;20039;-77
2023/12/07 09:46:32;;;;;;;3.15;2.97;;;1.30;99.90;;;;;;4980013;28;20389;-77
2023/12/07 09:48:58;;;;;;;2.70;2.50;;;1.40;99.90;;;;;;4988309;28;20041;-78
2023/12/07 09:51:25;;;;;;;6.80;2.78;;;1.40;99.90;;;;;;4986060;28;20034;-77
2023/12/07 09:53:52;;;;;;;4.18;3.78;;;1.50;99.90;;;;;;4969405;28;20034;-77
2023/12/07 09:56:19;;;;;;;10.20;4.63;;;1.50;99.90;;;;;;4945737;28;20046;-77
2023/12/07 09:58:45;;;;;;;1.85;1.75;;;1.60;99.90;;;;;;4969955;28;20031;-77
2023/12/07 10:01:14;;;;;;;3.97;3.17;;;1.60;99.90;;;;;;4964765;28;20050;-77
2023/12/07 10:03:41;;;;;;;11.23;3.17;;;1.70;99.90;;;;;;4964411;28;20047;-76
2023/12/07 10:06:07;;;;;;;2.28;2.00;;;1.70;99.90;;;;;;4965136;28;20035;-76
2023/12/07 10:08:37;;;;;;;14.85;3.78;;;1.70;99.90;;;;;;4967365;28;20384;-76
2023/12/07 10:11:05;;;;;;;3.10;2.35;;;1.80;99.90;;;;;;4965753;28;20035;-76
2023/12/07 10:13:33;;;;;;;9.13;4.00;;;1.70;99.90;;;;;;4967172;28;20031;-76
2023/12/07 10:16:15;;;;;;;2.28;2.17;;;1.80;99.90;;;;;;4966010;28;20054;-75
2023/12/07 10:18:41;;;;;;;3.72;2.75;;;1.80;99.90;;;;;;4973797;28;20041;-76
2023/12/07 10:21:11;;;;;;;2.63;2.50;;;2.00;99.90;;;;;;4971375;28;20564;-75
2023/12/07 10:23:38;;;;;;;1.35;1.27;;;2.00;99.90;;;;;;4962491;28;20050;-76
2023/12/07 10:26:06;;;;;;;3.17;2.95;;;2.20;99.90;;;;;;4957980;28;20476;-76
2023/12/07 10:28:37;;;;;;;1.85;1.75;;;2.40;99.90;;;;;;4964743;28;20385;-76
2023/12/07 10:31:03;;;;;;;2.17;1.95;;;2.50;99.90;;;;;;4965029;28;20034;-76
2023/12/07 10:33:30;;;;;;;9.60;3.75;;;2.50;99.90;;;;;;4964331;28;20046;-76
2023/12/07 10:35:56;;;;;;;7.47;3.47;;;2.50;99.90;;;;;;4961813;28;20043;-77
2023/12/07 10:38:22;;;;;;;2.92;2.60;;;2.60;99.90;;;;;;4962854;28;20046;-76
2023/12/07 10:40:57;;;;;;;10.38;3.35;;;2.60;99.90;;;;;;4966136;28;20093;-76
2023/12/07 10:43:23;;;;;;;2.20;2.05;;;2.80;99.90;;;;;;4965807;28;20041;-76
2023/12/07 10:45:49;;;;;;;4.85;3.75;;;2.90;99.90;;;;;;4964646;28;20066;-78
2023/12/07 10:48:17;;;;;;;1.80;1.70;;;2.90;99.90;;;;;;4961073;28;20031;-78
2023/12/07 10:50:49;;;;;;;3.55;3.25;;;2.90;99.90;;;;;;4945925;28;20055;-76
2023/12/07 10:53:28;;;;;;;1.80;1.65;;;3.10;99.90;;;;;;4964598;28;20035;-76
2023/12/07 10:55:57;;;;;;;3.50;3.22;;;2.90;99.90;;;;;;4960071;28;20121;-76
2023/12/07 10:58:27;;;;;;;4.32;3.28;;;3.00;99.90;;;;;;4950316;28;20042;-76
2023/12/07 11:00:54;;;;;;;;;;;3.10;85.20;;;;;;4967080;28;20031;-76
2023/12/07 11:03:21;;;;;;;5.13;4.03;;;3.00;45.40;;;;;;4967564;28;19910;-76
2023/12/07 11:05:48;;;;;;;3.78;3.00;;;3.10;36.70;;;;;;4963248;28;20050;-76
2023/12/07 11:08:50;;;;;;;2.78;2.33;;;3.10;1.00;;;;;;4961979;28;20366;-77
2023/12/07 11:11:29;;;;;;;3.38;3.08;;;3.20;1.00;;;;;;4964856;28;20660;-77
2023/12/07 11:14:06;;;;;;;7.53;4.07;;;3.30;1.00;;;;;;4966324;28;20035;-77
2023/12/07 11:16:37;;;;;;;17.85;2.80;;;3.40;1.00;;;;;;4964308;28;20059;-77
2023/12/07 11:19:06;;;;;;;3.22;2.90;;;3.50;1.00;;;;;;4962027;28;20043;-76
2023/12/07 11:21:33;;;;;;;2.42;2.22;;;3.70;1.00;;;;;;4960971;28;20038;-75
2023/12/07 11:24:01;;;;;;;2.25;2.15;;;3.50;99.90;;;;;;4965368;28;20031;-78
2023/12/07 11:26:28;;;;;;;2.78;2.58;;;3.20;1.00;;;;;;4961928;28;20041;-78
2023/12/07 11:28:56;;;;;;;2.47;2.03;;;3.10;1.00;;;;;;4963282;28;20027;-76
2023/12/07 11:31:22;;;;;;;4.13;3.00;;;3.00;1.00;;;;;;4957002;28;20034;-77
2023/12/07 11:33:49;;;;;;;2.08;1.75;;;2.90;1.00;;;;;;4965959;28;20034;-77
2023/12/07 11:36:15;;;;;;;4.13;3.47;;;2.80;1.00;;;;;;4965019;28;20049;-77
2023/12/07 11:39:01;;;;;;;3.97;2.85;;;2.80;1.00;;;;;;4964513;28;20035;-77
2023/12/07 11:41:43;;;;;;;2.05;1.58;;;2.80;1.00;;;;;;4960603;28;20042;-77
2023/12/07 11:44:12;;;;;;;1.88;1.80;;;2.80;1.00;;;;;;4967087;28;20035;-77
2023/12/07 11:46:39;;;;;;;3.20;2.90;;;2.80;1.00;;;;;;4970356;28;20055;-77
2023/12/07 11:49:10;;;;;;;4.30;3.42;;;2.80;1.00;;;;;;4973379;28;20062;-77
2023/12/07 11:51:36;;;;;;;2.58;2.00;;;2.90;1.00;;;;;;4965409;28;20035;-77
2023/12/07 11:54:03;;;;;;;2.53;2.30;;;2.90;1.00;;;;;;4968538;28;20038;-77
2023/12/07 11:56:29;;;;;;;3.47;2.45;;;2.90;1.00;;;;;;4970235;28;20039;-78
2023/12/07 11:58:57;;;;;;;3.05;2.50;;;2.70;1.00;;;;;;4971710;28;20035;-77
2023/12/07 12:01:25;;;;;;;2.00;1.88;;;2.70;1.00;;;;;;4958757;28;20042;-78
2023/12/07 12:03:51;;;;;;;4.47;4.10;;;2.70;1.00;;;;;;4958191;28;20035;-77
2023/12/07 12:06:17;;;;;;;3.90;2.30;;;2.80;1.00;;;;;;4968964;28;20043;-77
2023/12/07 12:08:44;;;;;;;3.17;2.17;;;2.90;1.00;;;;;;4972235;28;20038;-77
2023/12/07 12:11:10;;;;;;;1.40;1.30;;;2.90;1.00;;;;;;4971503;28;20026;-77
2023/12/07 12:13:37;;;;;;;2.63;2.38;;;2.90;1.00;;;;;;4966777;28;20042;-77
2023/12/07 12:16:04;;;;;;;2.03;1.75;;;2.90;1.00;;;;;;4969267;28;20038;-78
2023/12/07 12:18:30;;;;;;;2.05;1.95;;;2.70;1.00;;;;;;4969304;28;20392;-77
2023/12/07 12:20:59;;;;;;;5.30;4.07;;;2.60;1.00;;;;;;4973625;28;20030;-77
2023/12/07 12:23:25;;;;;;;8.73;4.03;;;2.80;1.00;;;;;;4967443;28;20035;-77
2023/12/07 12:25:51;;;;;;;2.67;1.67;;;2.90;1.00;;;;;;4967831;28;20051;-77
2023/12/07 12:28:21;;;;;;;1.73;1.63;;;2.90;1.00;;;;;;4970287;28;20027;-78
2023/12/07 12:30:48;;;;;;;5.32;4.63;;;2.80;1.00;;;;;;4971803;28;20057;-77
2023/12/07 12:33:14;;;;;;;9.55;4.25;;;2.80;1.00;;;;;;4967816;28;20023;-77
2023/12/07 12:35:41;;;;;;;1.70;0.90;;;2.70;1.00;;;;;;4963051;28;20046;-77
2023/12/07 12:38:11;;;;;;;2.05;1.95;;;2.60;1.00;;;;;;4969081;28;20034;-76
2023/12/07 12:40:38;;;;;;;2.70;2.33;;;2.40;1.00;;;;;;4973208;28;20037;-76
2023/12/07 12:43:05;;;;;;;6.97;4.13;;;2.30;1.00;;;;;;4967180;28;20024;-77
2023/12/07 12:45:33;;;;;;;3.90;3.60;;;2.40;20.60;;;;;;4966294;28;20055;-77
2023/12/07 12:47:59;;;;;;;1.70;1.60;;;2.50;22.90;;;;;;4968900;28;20050;-77
2023/12/07 12:50:37;;;;;;;4.40;3.00;;;2.60;2.40;;;;;;4969731;28;20494;-77
2023/12/07 12:53:05;;;;;;;2.40;1.35;;;2.60;1.00;;;;;;4972354;28;20042;-76